Time;durP1;ratioP1;P1;durP2;ratioP2;P2;SDS_P1;SDS_P2;PMS_P1;PMS_P2;Temp;Humidity;BMP_temperature;BMP_pressure;BME280_temperature;BME280_humidity;BME280_pressure;Samples;Min_cycle;Max_cycle;Signal;HPM_P1;HPM_P2
2023/04/16 00:01:43;;;;;;;5.33;4.83;;;;;;;8.04;83.38;100200.78;5004712;28;20200;-61
2023/04/16 00:04:11;;;;;;;5.53;4.87;;;;;;;8.01;82.91;100211.03;5007751;28;20361;-64
2023/04/16 00:06:39;;;;;;;6.13;5.33;;;;;;;7.95;83.09;100200.75;5009027;28;20286;-61
2023/04/16 00:09:07;;;;;;;5.60;5.07;;;;;;;7.93;83.46;100213.59;5004190;28;20225;-61
2023/04/16 00:11:36;;;;;;;6.43;5.77;;;;;;;7.91;83.75;100211.88;5010791;28;20302;-64
2023/04/16 00:14:04;;;;;;;8.20;6.07;;;;;;;7.90;83.26;100210.16;5001563;28;20634;-62
2023/04/16 00:16:32;;;;;;;6.53;5.83;;;;;;;7.88;84.26;100204.16;5004244;28;20211;-62
2023/04/16 00:19:01;;;;;;;7.13;6.00;;;;;;;7.87;83.96;100203.31;5010580;28;20213;-64
2023/04/16 00:21:30;;;;;;;7.50;6.03;;;;;;;7.87;83.69;100208.44;5011465;28;20568;-62
2023/04/16 00:23:57;;;;;;;7.90;5.53;;;;;;;7.86;83.94;100195.63;5005040;28;20238;-61
2023/04/16 00:26:25;;;;;;;6.50;5.57;;;;;;;7.81;84.50;100195.63;5005208;28;20298;-63
2023/04/16 00:28:54;;;;;;;6.80;6.07;;;;;;;7.83;84.33;100196.47;5010169;28;20210;-62
2023/04/16 00:31:27;;;;;;;6.40;5.70;;;;;;;7.89;84.87;100205.91;5008968;28;20674;-61
2023/04/16 00:33:55;;;;;;;7.00;6.30;;;;;;;7.91;84.67;100202.47;4999623;28;20211;-62
2023/04/16 00:36:23;;;;;;;7.37;5.83;;;;;;;7.91;84.57;100209.31;5009586;28;20211;-61
2023/04/16 00:38:51;;;;;;;6.27;5.47;;;;;;;7.91;85.27;100209.31;5011537;28;20723;-62
2023/04/16 00:41:20;;;;;;;7.07;6.00;;;;;;;7.89;85.42;100205.91;5008680;28;20218;-61
2023/04/16 00:43:48;;;;;;;7.23;5.73;;;;;;;7.88;84.68;100205.03;5011567;28;20681;-60
2023/04/16 00:46:19;;;;;;;7.03;5.43;;;;;;;7.89;84.85;100205.91;5008912;28;20211;-63
2023/04/16 00:48:48;;;;;;;6.93;6.23;;;;;;;7.88;85.80;100199.03;5004425;28;20637;-65
2023/04/16 00:51:20;;;;;;;6.40;5.50;;;;;;;7.89;84.96;100201.63;5006774;28;20207;-61
2023/04/16 00:53:48;;;;;;;6.20;5.37;;;;;;;7.90;85.30;100205.88;5008595;28;20251;-62
2023/04/16 00:56:16;;;;;;;6.40;5.63;;;;;;;7.91;85.04;100206.75;5009626;28;20306;-63
2023/04/16 00:58:44;;;;;;;5.83;5.13;;;;;;;7.89;84.38;100208.47;5011024;28;20205;-60
2023/04/16 01:01:13;;;;;;;6.53;5.47;;;;;;;7.91;84.65;100204.16;5009018;28;20302;-63
2023/04/16 01:03:44;;;;;;;5.40;4.67;;;;;;;7.93;84.82;100213.59;5008576;28;20195;-62
2023/04/16 01:06:13;;;;;;;5.57;5.07;;;;;;;7.94;84.55;100217.00;5009175;28;20235;-64
2023/04/16 01:08:41;;;;;;;5.10;4.43;;;;;;;7.91;84.56;100207.59;5007938;28;20286;-61
2023/04/16 01:11:10;;;;;;;4.40;4.00;;;;;;;7.90;84.58;100217.88;4999268;28;20573;-60
2023/04/16 01:13:38;;;;;;;4.37;3.97;;;;;;;7.87;84.12;100213.56;5009153;28;20254;-68
2023/04/16 01:16:07;;;;;;;4.50;4.00;;;;;;;7.84;84.21;100208.47;5010796;28;20296;-64
2023/04/16 01:18:36;;;;;;;4.87;4.13;;;;;;;7.87;84.46;100212.72;5010920;28;20245;-60
2023/04/16 01:21:05;;;;;;;5.17;4.07;;;;;;;7.88;84.09;100215.31;5005579;28;20678;-61
2023/04/16 01:23:34;;;;;;;5.40;4.10;;;;;;;7.91;84.00;100215.28;5007274;28;20231;-61
2023/04/16 01:26:01;;;;;;;4.70;4.30;;;;;;;7.94;84.07;100215.31;5007715;28;20261;-65
2023/04/16 01:28:29;;;;;;;4.37;3.97;;;;;;;7.95;83.77;100208.44;5009309;28;20206;-63
2023/04/16 01:30:57;;;;;;;5.17;4.60;;;;;;;7.96;84.92;100212.75;5006242;28;20207;-61
2023/04/16 01:33:25;;;;;;;6.13;5.00;;;;;;;7.97;84.73;100214.47;5010708;28;20722;-62
2023/04/16 01:35:53;;;;;;;5.97;5.20;;;;;;;7.96;84.21;100207.63;5009151;28;20764;-65
2023/04/16 01:38:22;;;;;;;6.03;4.93;;;;;;;7.94;83.64;100207.59;5008066;28;20654;-61
2023/04/16 01:40:50;;;;;;;5.80;5.17;;;;;;;7.96;84.45;100215.31;5009079;28;20203;-63
2023/04/16 01:43:18;;;;;;;5.47;4.97;;;;;;;7.95;83.89;100214.47;5009260;28;20234;-61
2023/04/16 01:45:46;;;;;;;5.80;5.20;;;;;;;7.94;83.58;100210.16;5011799;28;20203;-60
2023/04/16 01:48:14;;;;;;;5.87;5.27;;;;;;;7.94;83.93;100212.72;5013841;28;20674;-65
2023/04/16 01:50:42;;;;;;;6.07;4.90;;;;;;;7.92;83.75;100221.31;5012226;28;20261;-62
2023/04/16 01:53:10;;;;;;;6.07;4.87;;;;;;;7.91;83.89;100219.56;5012328;28;20313;-61
2023/04/16 01:55:39;;;;;;;7.10;4.83;;;;;;;7.91;84.20;100214.44;5013626;28;20211;-63
2023/04/16 01:58:09;;;;;;;5.97;4.83;;;;;;;7.92;83.45;100216.16;5013691;28;20223;-62
2023/04/16 02:00:37;;;;;;;7.17;5.00;;;;;;;7.95;83.75;100221.28;5009582;28;20299;-63
2023/04/16 02:03:05;;;;;;;6.53;5.93;;;;;;;7.92;84.03;100221.31;5010139;28;20300;-62
2023/04/16 02:05:33;;;;;;;7.33;6.00;;;;;;;7.84;83.94;100222.97;5011933;28;20211;-61
2023/04/16 02:08:01;;;;;;;6.97;6.27;;;;;;;7.81;84.03;100228.97;5014293;28;20618;-62
2023/04/16 02:10:29;;;;;;;6.83;6.10;;;;;;;7.79;83.72;100230.66;5013238;28;20651;-61
2023/04/16 02:12:58;;;;;;;9.10;6.63;;;;;;;7.77;84.23;100228.94;5012535;28;20207;-62
2023/04/16 02:15:26;;;;;;;7.30;5.60;;;;;;;7.76;84.33;100235.78;5012882;28;20207;-62
2023/04/16 02:17:55;;;;;;;8.33;6.23;;;;;;;7.74;84.58;100238.34;5009900;28;20203;-62
2023/04/16 02:20:23;;;;;;;8.40;6.30;;;;;;;7.71;85.04;100233.22;5010933;28;20203;-61
2023/04/16 02:22:52;;;;;;;6.83;6.13;;;;;;;7.70;84.20;100241.75;5006787;28;20692;-60
2023/04/16 02:25:20;;;;;;;6.90;5.93;;;;;;;7.69;84.52;100245.16;5011138;28;20241;-63
2023/04/16 02:27:47;;;;;;;7.50;5.80;;;;;;;7.67;84.32;100236.63;5012903;28;20211;-60
2023/04/16 02:30:17;;;;;;;6.90;6.20;;;;;;;7.66;84.78;100234.06;5013354;28;20257;-57
2023/04/16 02:32:45;;;;;;;6.13;5.53;;;;;;;7.65;85.08;100235.75;5005042;28;20250;-60
2023/04/16 02:35:13;;;;;;;6.30;4.93;;;;;;;7.65;84.82;100232.31;5011140;28;20628;-61
2023/04/16 02:37:41;;;;;;;5.90;5.20;;;;;;;7.68;85.03;100243.44;5011443;28;20524;-66
2023/04/16 02:40:10;;;;;;;6.13;5.53;;;;;;;7.65;84.28;100248.56;5013822;28;20611;-62
2023/04/16 02:42:38;;;;;;;6.03;5.47;;;;;;;7.64;84.22;100249.41;5006322;28;20656;-59
2023/04/16 02:45:07;;;;;;;6.10;5.07;;;;;;;7.56;84.46;100245.97;5011479;28;20196;-58
2023/04/16 02:47:36;;;;;;;6.67;5.63;;;;;;;7.57;84.09;100263.06;5013190;28;20249;-59
2023/04/16 02:50:05;;;;;;;6.03;5.43;;;;;;;7.55;84.43;100259.66;5012482;28;20207;-58
2023/04/16 02:52:33;;;;;;;6.97;5.90;;;;;;;7.55;84.86;100262.22;5011456;28;20199;-58
2023/04/16 02:55:01;;;;;;;6.77;6.07;;;;;;;7.50;84.16;100267.31;5010108;28;20222;-58
2023/04/16 02:57:29;;;;;;;7.43;5.90;;;;;;;7.48;85.13;100268.19;5010131;28;20242;-58
2023/04/16 02:59:57;;;;;;;7.73;6.13;;;;;;;7.48;84.80;100269.03;5009734;28;20257;-59
2023/04/16 03:02:26;;;;;;;6.90;6.20;;;;;;;7.54;84.71;100273.31;5009453;28;20215;-58
2023/04/16 03:04:55;;;;;;;7.27;6.57;;;;;;;7.55;84.94;100269.03;5011836;28;20260;-57
2023/04/16 03:07:23;;;;;;;8.33;7.27;;;;;;;7.57;85.14;100273.31;5011151;28;20279;-60
2023/04/16 03:09:51;;;;;;;10.83;7.07;;;;;;;7.57;84.70;100286.16;5008845;28;20203;-58
2023/04/16 03:12:19;;;;;;;6.67;6.07;;;;;;;7.58;84.24;100287.84;5011313;28;20556;-59
2023/04/16 03:14:47;;;;;;;7.67;6.50;;;;;;;7.58;83.98;100292.97;5011636;28;20604;-59
2023/04/16 03:17:15;;;;;;;6.40;5.80;;;;;;;7.57;83.93;100291.28;5010325;28;20265;-59
2023/04/16 03:19:43;;;;;;;6.73;6.03;;;;;;;7.56;84.11;100287.00;5009839;28;20745;-60
2023/04/16 03:22:12;;;;;;;6.63;6.00;;;;;;;7.57;84.67;100285.28;5011673;28;20714;-60
2023/04/16 03:24:40;;;;;;;6.30;5.67;;;;;;;7.56;83.82;100284.44;5006530;28;20204;-59
2023/04/16 03:27:08;;;;;;;6.87;5.97;;;;;;;7.56;84.83;100284.44;5007779;28;20203;-58
2023/04/16 03:29:36;;;;;;;8.23;6.67;;;;;;;7.59;84.27;100278.47;5010546;28;20261;-58
2023/04/16 03:32:04;;;;;;;7.80;6.20;;;;;;;7.59;84.56;100284.47;5010701;28;20203;-58
2023/04/16 03:34:32;;;;;;;7.20;6.50;;;;;;;7.63;84.08;100281.06;5009738;28;20678;-62
2023/04/16 03:37:00;;;;;;;9.17;6.07;;;;;;;7.63;84.02;100280.19;5007005;28;20689;-60
2023/04/16 03:39:29;;;;;;;8.20;6.97;;;;;;;7.62;84.45;100283.59;5011488;28;20211;-64
2023/04/16 03:41:57;;;;;;;7.83;6.40;;;;;;;7.59;84.52;100286.19;5009159;28;20277;-60
2023/04/16 03:44:25;;;;;;;7.70;6.17;;;;;;;7.57;83.94;100288.72;5011887;28;20222;-58
2023/04/16 03:46:53;;;;;;;8.30;6.80;;;;;;;7.53;85.03;100281.84;5010313;28;20203;-58
2023/04/16 03:49:21;;;;;;;12.00;8.40;;;;;;;7.51;84.65;100288.69;5007632;28;20290;-59
2023/04/16 03:51:50;;;;;;;7.23;6.23;;;;;;;7.47;84.64;100292.97;5009991;28;20207;-57
2023/04/16 03:54:17;;;;;;;10.87;7.20;;;;;;;7.45;84.57;100296.34;5011986;28;20273;-58
2023/04/16 03:56:50;;;;;;;8.37;7.40;;;;;;;7.44;85.01;100294.66;5008571;28;20206;-57
2023/04/16 03:59:18;;;;;;;8.57;7.03;;;;;;;7.44;85.79;100297.22;5011055;28;20204;-58
2023/04/16 04:01:46;;;;;;;11.30;7.40;;;;;;;7.45;85.12;100288.66;5010042;28;20199;-58
2023/04/16 04:04:15;;;;;;;8.37;7.13;;;;;;;7.53;85.34;100309.22;5008679;28;20227;-59
2023/04/16 04:06:44;;;;;;;9.37;7.43;;;;;;;7.55;84.72;100290.44;5009276;28;20662;-60
2023/04/16 04:09:12;;;;;;;7.90;7.00;;;;;;;7.58;84.77;100292.97;5010027;28;20246;-58
2023/04/16 04:11:40;;;;;;;8.13;6.67;;;;;;;7.61;84.35;100298.13;5007466;28;20654;-59
2023/04/16 04:14:09;;;;;;;9.73;7.90;;;;;;;7.63;84.39;100303.28;5010634;28;20211;-62
2023/04/16 04:16:37;;;;;;;7.87;7.10;;;;;;;7.63;84.25;100300.72;5004650;28;20230;-58
2023/04/16 04:19:05;;;;;;;8.30;7.17;;;;;;;7.61;83.57;100295.56;5010612;28;20626;-59
2023/04/16 04:21:33;;;;;;;12.17;7.60;;;;;;;7.59;84.44;100289.59;5008404;28;20237;-58
2023/04/16 04:24:01;;;;;;;9.37;7.77;;;;;;;7.67;83.91;100311.00;5010793;28;20270;-58
2023/04/16 04:26:29;;;;;;;8.43;7.13;;;;;;;7.67;84.00;100305.84;5007185;28;20234;-58
2023/04/16 04:28:57;;;;;;;8.97;7.67;;;;;;;7.68;83.82;100306.72;5006017;28;20211;-61
2023/04/16 04:31:26;;;;;;;11.20;7.97;;;;;;;7.68;84.38;100312.69;5007431;28;20262;-61
2023/04/16 04:33:55;;;;;;;8.60;7.70;;;;;;;7.73;84.49;100316.16;5008092;28;20579;-58
2023/04/16 04:36:23;;;;;;;9.03;8.13;;;;;;;7.78;83.60;100312.75;5009968;28;20652;-59
2023/04/16 04:38:51;;;;;;;10.13;8.30;;;;;;;7.82;82.71;100317.03;5004757;28;20290;-58
2023/04/16 04:41:18;;;;;;;9.77;7.70;;;;;;;7.81;83.66;100321.31;5003494;28;20235;-57
2023/04/16 04:43:46;;;;;;;9.50;7.17;;;;;;;7.80;82.63;100324.72;5004426;28;20600;-58
2023/04/16 04:46:14;;;;;;;8.87;7.97;;;;;;;7.77;82.65;100323.84;5009972;28;20691;-59
2023/04/16 04:48:44;;;;;;;9.40;8.40;;;;;;;7.77;82.59;100334.09;5006359;28;20214;-62
2023/04/16 04:51:11;;;;;;;8.40;7.60;;;;;;;7.78;83.69;100336.69;5009120;28;20558;-59
2023/04/16 04:53:39;;;;;;;8.73;7.83;;;;;;;7.75;83.59;100319.56;5010023;28;20250;-58
2023/04/16 04:56:08;;;;;;;8.87;7.97;;;;;;;7.86;82.92;100334.16;5009978;28;20226;-58
2023/04/16 04:58:40;;;;;;;9.47;8.47;;;;;;;7.85;82.41;100332.44;5008351;28;20258;-59
2023/04/16 05:01:08;;;;;;;10.03;8.13;;;;;;;7.91;82.36;100335.88;5009298;28;20206;-57
2023/04/16 05:03:36;;;;;;;9.47;8.33;;;;;;;7.94;82.95;100341.03;5006638;28;20677;-58
2023/04/16 05:06:07;;;;;;;9.40;8.13;;;;;;;7.96;82.51;100343.63;5009955;28;20288;-57
2023/04/16 05:08:35;;;;;;;9.93;8.43;;;;;;;8.01;82.02;100352.16;4999074;28;20291;-57
2023/04/16 05:11:03;;;;;;;9.17;7.97;;;;;;;7.99;82.26;100341.06;5007976;28;20200;-56
2023/04/16 05:13:30;;;;;;;9.87;8.00;;;;;;;7.99;82.06;100346.19;5008835;28;20351;-58
2023/04/16 05:15:58;;;;;;;9.60;8.47;;;;;;;8.02;82.02;100353.88;5008322;28;20269;-57
2023/04/16 05:18:26;;;;;;;10.50;8.83;;;;;;;8.01;82.06;100344.47;5008072;28;20207;-58
2023/04/16 05:20:54;;;;;;;11.53;9.07;;;;;;;8.03;81.87;100345.34;5011870;28;20673;-58
2023/04/16 05:23:24;;;;;;;9.27;8.27;;;;;;;8.02;82.04;100353.88;5012754;28;20714;-58
2023/04/16 05:25:51;;;;;;;10.70;8.30;;;;;;;8.04;81.48;100351.34;5013647;28;20241;-60
2023/04/16 05:28:19;;;;;;;10.07;9.07;;;;;;;8.06;82.18;100349.63;5010650;28;20214;-59
2023/04/16 05:30:47;;;;;;;10.13;8.60;;;;;;;8.06;82.00;100349.63;5010029;28;20654;-61
2023/04/16 05:33:15;;;;;;;9.63;8.67;;;;;;;8.10;81.29;100357.34;5012286;28;20223;-60
2023/04/16 05:35:43;;;;;;;10.13;8.50;;;;;;;8.16;81.59;100354.78;5013066;28;20219;-61
2023/04/16 05:38:11;;;;;;;9.63;7.53;;;;;;;8.24;81.36;100362.50;5013897;28;20203;-60
2023/04/16 05:40:40;;;;;;;7.97;7.17;;;;;;;8.30;81.40;100364.25;5012755;28;20253;-58
2023/04/16 05:43:08;;;;;;;9.30;8.30;;;;;;;8.36;81.21;100361.72;5013260;28;20257;-58
2023/04/16 05:45:39;;;;;;;7.67;6.83;;;;;;;8.37;81.06;100364.31;5011887;28;20199;-58
2023/04/16 05:48:08;;;;;;;7.77;6.97;;;;;;;8.38;80.14;100360.00;5010838;28;20253;-59
2023/04/16 05:50:37;;;;;;;9.80;7.67;;;;;;;8.38;79.86;100360.88;5011703;28;20203;-59
2023/04/16 05:53:07;;;;;;;7.67;6.90;;;;;;;8.40;79.79;100363.47;5008098;28;20250;-58
2023/04/16 05:55:35;;;;;;;8.20;7.23;;;;;;;8.49;79.79;100368.59;5008647;28;20219;-63
2023/04/16 05:58:05;;;;;;;8.40;7.50;;;;;;;8.54;79.86;100374.59;5008750;28;20211;-58
2023/04/16 06:00:33;;;;;;;9.57;6.93;;;;;;;8.57;78.75;100382.31;5007077;28;20258;-60
2023/04/16 06:03:02;;;;;;;8.57;7.67;;;;;;;8.54;77.88;100382.28;5006455;28;20203;-58
2023/04/16 06:05:31;;;;;;;9.37;7.53;;;;;;;8.50;78.45;100380.56;5011239;28;20716;-59
2023/04/16 06:07:59;;;;;;;8.77;7.87;;;;;;;8.45;77.63;100382.28;5012515;28;20208;-58
2023/04/16 06:10:27;;;;;;;9.97;8.63;;;;;;;8.42;77.38;100384.84;5010098;28;20203;-59
2023/04/16 06:12:55;;;;;;;9.97;8.30;;;;;;;8.39;77.45;100383.13;5004865;28;20195;-59
2023/04/16 06:15:24;;;;;;;9.20;8.23;;;;;;;8.41;77.66;100390.84;5010072;28;20262;-58
2023/04/16 06:17:52;;;;;;;9.87;7.60;;;;;;;8.38;76.90;100395.97;5013742;28;20250;-60
2023/04/16 06:20:20;;;;;;;8.20;7.03;;;;;;;8.38;77.61;100401.09;5015729;28;20306;-59
2023/04/16 06:22:48;;;;;;;8.83;7.93;;;;;;;8.40;77.37;100396.84;5012063;28;20297;-60
2023/04/16 06:25:16;;;;;;;7.87;7.17;;;;;;;8.44;77.33;100396.84;5006991;28;20242;-57
2023/04/16 06:27:45;;;;;;;9.00;7.53;;;;;;;8.50;77.90;100395.13;5006354;28;20621;-59
2023/04/16 06:30:13;;;;;;;8.90;7.77;;;;;;;8.53;77.69;100400.28;5009337;28;20215;-65
2023/04/16 06:32:45;;;;;;;10.57;7.53;;;;;;;8.56;77.96;100405.44;5006268;28;20195;-66
2023/04/16 06:35:13;;;;;;;8.77;7.87;;;;;;;8.60;76.72;100405.44;5010289;28;20217;-64
2023/04/16 06:37:41;;;;;;;9.10;7.80;;;;;;;8.62;77.07;100396.03;5011752;28;20227;-65
2023/04/16 06:40:10;;;;;;;8.50;7.50;;;;;;;8.67;76.94;100402.03;5012863;28;20563;-66
2023/04/16 06:42:38;;;;;;;9.53;7.30;;;;;;;8.68;76.30;100398.59;5010408;28;20203;-63
2023/04/16 06:45:08;;;;;;;8.77;7.87;;;;;;;8.69;76.70;100402.91;5005788;28;20207;-63
2023/04/16 06:47:35;;;;;;;9.67;8.03;;;;;;;8.71;77.42;100408.03;5006712;28;20203;-61
2023/04/16 06:50:06;;;;;;;10.03;7.57;;;;;;;8.73;76.04;100403.75;5007101;28;20570;-64
2023/04/16 06:52:34;;;;;;;8.27;7.43;;;;;;;8.80;76.04;100408.06;5009891;28;20203;-63
2023/04/16 06:55:02;;;;;;;8.20;7.40;;;;;;;8.82;76.03;100410.63;5015397;28;20242;-62
2023/04/16 06:57:30;;;;;;;10.90;7.60;;;;;;;8.84;76.22;100408.91;5009082;28;20242;-64
2023/04/16 06:59:58;;;;;;;9.10;7.40;;;;;;;8.91;75.93;100411.50;5007418;28;20215;-63
2023/04/16 07:02:26;;;;;;;9.07;7.00;;;;;;;9.01;76.14;100404.63;5008998;28;20716;-62
2023/04/16 07:04:54;;;;;;;8.20;7.40;;;;;;;8.99;74.42;100405.50;5011045;28;20616;-61
2023/04/16 07:07:24;;;;;;;9.70;6.73;;;;;;;8.98;74.53;100419.19;5012432;28;20211;-64
2023/04/16 07:09:55;;;;;;;7.60;6.80;;;;;;;8.96;74.31;100419.22;5010400;28;20681;-61
2023/04/16 07:12:23;;;;;;;7.60;6.80;;;;;;;8.95;74.69;100420.06;5009936;28;20298;-64
2023/04/16 07:14:51;;;;;;;8.17;7.37;;;;;;;8.93;74.27;100421.78;5012455;28;20260;-63
2023/04/16 07:17:19;;;;;;;7.40;6.63;;;;;;;8.87;74.50;100421.75;5006016;28;20449;-64
2023/04/16 07:19:47;;;;;;;7.07;6.37;;;;;;;8.88;74.92;100423.47;5010257;28;20208;-63
2023/04/16 07:22:15;;;;;;;8.07;7.27;;;;;;;8.97;75.01;100430.34;5009652;28;20706;-64
2023/04/16 07:24:44;;;;;;;8.23;7.23;;;;;;;9.03;75.20;100430.34;5002497;28;20669;-63
2023/04/16 07:27:12;;;;;;;8.83;7.50;;;;;;;9.08;75.34;100434.63;5010678;28;20211;-65
2023/04/16 07:29:40;;;;;;;8.33;7.53;;;;;;;9.09;73.91;100433.75;5008034;28;20295;-67
2023/04/16 07:32:08;;;;;;;8.33;7.50;;;;;;;9.06;74.67;100444.06;5008814;28;20200;-64
2023/04/16 07:34:36;;;;;;;8.30;7.50;;;;;;;9.08;74.80;100449.19;5001370;28;20204;-64
2023/04/16 07:37:04;;;;;;;8.17;7.33;;;;;;;9.05;74.88;100452.63;5010167;28;20227;-61
2023/04/16 07:39:32;;;;;;;8.90;7.60;;;;;;;9.04;74.30;100453.47;5003993;28;20203;-62
2023/04/16 07:42:01;;;;;;;8.87;7.53;;;;;;;9.05;74.29;100452.63;5004659;28;20679;-64
2023/04/16 07:44:30;;;;;;;7.90;7.10;;;;;;;9.07;74.52;100445.78;5009349;28;20615;-65
2023/04/16 07:46:57;;;;;;;7.87;7.07;;;;;;;9.11;73.69;100452.63;5008403;28;20659;-63
2023/04/16 07:49:25;;;;;;;8.37;7.40;;;;;;;9.11;74.28;100455.19;5002112;28;20561;-63
2023/04/16 07:51:53;;;;;;;9.13;7.70;;;;;;;9.10;74.37;100461.22;5007070;28;20566;-62
2023/04/16 07:54:21;;;;;;;7.67;6.40;;;;;;;9.04;73.56;100458.63;5007490;28;20729;-64
2023/04/16 07:56:49;;;;;;;7.70;6.70;;;;;;;9.10;74.22;100460.34;5009981;28;20231;-62
2023/04/16 07:59:18;;;;;;;6.90;6.23;;;;;;;9.13;73.79;100458.66;5005941;28;20215;-62
2023/04/16 08:01:53;;;;;;;8.60;6.87;;;;;;;9.18;73.96;100459.50;5002663;28;20211;-63
2023/04/16 08:04:23;;;;;;;8.13;7.20;;;;;;;9.21;73.02;100468.94;5002533;28;20225;-62
2023/04/16 08:06:53;;;;;;;7.70;7.00;;;;;;;9.23;73.27;100464.63;5001696;28;20211;-61
2023/04/16 08:09:23;;;;;;;7.27;6.57;;;;;;;9.27;73.85;100468.91;4998872;28;20282;-62
2023/04/16 08:11:51;;;;;;;7.97;6.90;;;;;;;9.32;73.02;100471.50;5008521;28;20628;-62
2023/04/16 08:14:20;;;;;;;7.87;7.17;;;;;;;9.34;73.61;100482.63;5008233;28;20211;-65
2023/04/16 08:16:48;;;;;;;8.20;6.90;;;;;;;9.37;73.27;100483.50;5008014;28;20227;-65
2023/04/16 08:19:16;;;;;;;7.70;6.90;;;;;;;9.41;72.90;100487.78;5006244;28;20584;-64
2023/04/16 08:21:44;;;;;;;8.57;7.53;;;;;;;9.40;72.89;100490.38;5004330;28;20238;-64
2023/04/16 08:24:12;;;;;;;7.97;6.93;;;;;;;9.43;72.77;100488.66;5009602;28;20261;-62
2023/04/16 08:26:40;;;;;;;8.70;7.87;;;;;;;9.50;73.30;100492.09;5009540;28;20203;-63
2023/04/16 08:29:08;;;;;;;8.27;7.47;;;;;;;9.55;72.39;100490.38;5007088;28;20610;-63
2023/04/16 08:31:38;;;;;;;7.67;6.87;;;;;;;9.57;72.14;100487.78;5006457;28;20269;-62
2023/04/16 08:34:06;;;;;;;8.10;7.30;;;;;;;9.59;72.09;100492.06;5010239;28;20203;-62
2023/04/16 08:36:34;;;;;;;9.00;8.10;;;;;;;9.62;71.76;100488.66;5011580;28;20716;-64
2023/04/16 08:39:02;;;;;;;8.80;7.63;;;;;;;9.63;72.20;100493.78;5011299;28;20273;-62
2023/04/16 08:41:32;;;;;;;11.47;7.33;;;;;;;9.70;71.85;100488.66;5011320;28;20203;-63
2023/04/16 08:44:04;;;;;;;8.40;7.17;;;;;;;9.83;71.65;100492.91;5011048;28;20207;-63
2023/04/16 08:46:36;;;;;;;9.60;8.63;;;;;;;10.04;72.00;100490.28;5007888;28;20648;-64
2023/04/16 08:49:07;;;;;;;7.73;6.93;;;;;;;10.24;71.21;100484.25;5011067;28;20203;-64
2023/04/16 08:51:36;;;;;;;9.17;7.83;;;;;;;10.33;70.25;100482.53;5011147;28;20199;-61
2023/04/16 08:54:08;;;;;;;7.73;7.03;;;;;;;10.42;70.14;100489.38;5009875;28;20658;-63
2023/04/16 08:56:37;;;;;;;7.80;7.00;;;;;;;10.51;69.81;100491.03;5009101;28;20226;-62
2023/04/16 08:59:06;;;;;;;8.27;7.47;;;;;;;10.56;68.95;100497.88;5004780;28;20203;-62
2023/04/16 09:01:35;;;;;;;7.47;6.73;;;;;;;10.61;68.98;100496.16;5008761;28;20207;-61
2023/04/16 09:04:04;;;;;;;7.80;7.00;;;;;;;10.70;68.71;100500.41;5007172;28;20302;-63
2023/04/16 09:06:36;;;;;;;7.53;6.73;;;;;;;10.77;68.10;100503.81;5009873;28;20200;-61
2023/04/16 09:09:05;;;;;;;7.23;6.53;;;;;;;10.77;67.77;100498.66;5011298;28;20666;-62
2023/04/16 09:11:33;;;;;;;7.00;6.30;;;;;;;10.74;67.91;100511.56;5011029;28;20210;-63
2023/04/16 09:14:01;;;;;;;8.30;7.37;;;;;;;10.71;67.74;100503.81;5011242;28;20261;-61
2023/04/16 09:16:33;;;;;;;7.00;6.33;;;;;;;10.72;67.92;100505.56;5007950;28;20662;-66
2023/04/16 09:19:01;;;;;;;8.63;7.03;;;;;;;10.74;67.77;100503.81;5008453;28;20741;-63
2023/04/16 09:21:29;;;;;;;6.90;6.30;;;;;;;10.74;67.63;100509.81;5009573;28;20718;-67
2023/04/16 09:23:59;;;;;;;6.80;6.13;;;;;;;10.73;67.53;100510.69;5009870;28;20281;-62
2023/04/16 09:26:28;;;;;;;6.67;6.07;;;;;;;10.75;67.86;100511.56;5006386;28;20720;-62
2023/04/16 09:28:55;;;;;;;5.77;5.27;;;;;;;10.77;67.25;100508.97;5010316;28;20253;-61
2023/04/16 09:31:23;;;;;;;6.07;5.57;;;;;;;10.74;67.53;100503.81;5010742;28;20265;-63
2023/04/16 09:34:02;;;;;;;6.73;6.07;;;;;;;10.78;67.02;100505.50;5010718;28;20207;-61
2023/04/16 09:36:32;;;;;;;6.93;6.23;;;;;;;10.84;67.25;100520.97;5003848;28;20214;-62
2023/04/16 09:39:02;;;;;;;7.13;6.53;;;;;;;10.80;66.95;100519.25;5007798;28;20226;-63
2023/04/16 09:41:34;;;;;;;6.97;6.27;;;;;;;10.76;66.78;100522.72;5008826;28;20636;-62
2023/04/16 09:44:04;;;;;;;6.20;5.60;;;;;;;10.69;66.88;100521.88;5008977;28;20211;-61
2023/04/16 09:46:35;;;;;;;6.47;5.87;;;;;;;10.73;67.49;100522.75;5009934;28;20217;-63
2023/04/16 09:49:08;;;;;;;6.30;5.73;;;;;;;10.77;67.22;100517.56;5010971;28;20551;-62
2023/04/16 09:51:37;;;;;;;6.37;5.70;;;;;;;10.86;66.86;100525.25;5006680;28;20207;-63
2023/04/16 09:54:07;;;;;;;6.87;6.07;;;;;;;10.96;66.70;100525.19;5003145;28;20238;-61
2023/04/16 09:56:40;;;;;;;6.80;6.20;;;;;;;11.15;66.74;100533.69;5005239;28;20234;-62
2023/04/16 09:59:08;;;;;;;9.27;8.33;;;;;;;11.33;66.07;100529.25;5004595;28;20269;-61
2023/04/16 10:01:37;;;;;;;6.70;6.10;;;;;;;11.46;65.65;100534.34;5002291;28;20210;-62
2023/04/16 10:04:06;;;;;;;6.10;5.50;;;;;;;11.47;65.46;100536.06;5007843;28;20207;-62
2023/04/16 10:06:34;;;;;;;6.40;5.60;;;;;;;11.47;65.35;100536.91;5013235;28;20249;-61
2023/04/16 10:09:09;;;;;;;6.57;6.00;;;;;;;11.48;65.41;100536.03;5014012;28;20504;-62
2023/04/16 10:11:37;;;;;;;6.50;5.80;;;;;;;11.49;65.68;100542.06;5014017;28;20201;-61
2023/04/16 10:14:05;;;;;;;6.80;5.97;;;;;;;11.50;65.43;100543.78;5013999;28;20207;-61
2023/04/16 10:16:34;;;;;;;6.90;6.30;;;;;;;11.46;65.05;100537.78;5010892;28;20280;-62
2023/04/16 10:19:02;;;;;;;7.20;6.37;;;;;;;11.43;65.45;100548.13;5013903;28;20768;-62
2023/04/16 10:21:32;;;;;;;6.87;6.23;;;;;;;11.47;65.64;100547.22;5013886;28;20266;-62
2023/04/16 10:24:01;;;;;;;6.87;6.00;;;;;;;11.56;65.46;100546.28;5012872;28;20238;-65
2023/04/16 10:26:31;;;;;;;6.37;5.77;;;;;;;11.58;64.98;100554.88;5013779;28;20685;-63
2023/04/16 10:28:59;;;;;;;6.27;5.77;;;;;;;11.56;64.49;100560.06;5013887;28;20717;-62
2023/04/16 10:31:28;;;;;;;6.43;5.93;;;;;;;11.53;64.20;100559.25;5014068;28;20257;-63
2023/04/16 10:33:58;;;;;;;6.27;5.67;;;;;;;11.56;63.95;100556.59;5007251;28;20206;-67
2023/04/16 10:36:26;;;;;;;6.47;5.87;;;;;;;11.56;64.33;100560.06;5013671;28;20199;-61
2023/04/16 10:38:59;;;;;;;6.27;5.67;;;;;;;11.54;63.42;100564.38;5013483;28;20227;-64
2023/04/16 10:41:27;;;;;;;6.23;5.63;;;;;;;11.54;63.06;100566.97;5013830;28;20625;-62
2023/04/16 10:44:08;;;;;;;6.37;5.77;;;;;;;11.58;62.87;100570.38;5013503;28;20249;-61
2023/04/16 10:46:38;;;;;;;6.20;5.60;;;;;;;11.59;62.94;100565.19;5013354;28;20203;-61
2023/04/16 10:49:14;;;;;;;6.70;6.10;;;;;;;11.60;62.01;100566.06;5013677;28;20692;-63
2023/04/16 10:51:42;;;;;;;6.30;5.70;;;;;;;11.65;62.22;100563.44;5009761;28;20249;-61
2023/04/16 10:54:21;;;;;;;6.67;5.20;;;;;;;11.76;62.25;100565.06;5009259;28;20234;-60
2023/04/16 10:56:50;;;;;;;5.90;5.40;;;;;;;11.95;62.30;100557.19;5012492;28;20249;-62
2023/04/16 10:59:21;;;;;;;7.00;5.90;;;;;;;12.16;61.84;100561.31;5012674;28;20318;-63
2023/04/16 11:01:51;;;;;;;6.13;5.50;;;;;;;12.31;61.03;100567.19;5013230;28;20253;-64
2023/04/16 11:04:43;;;;;;;6.30;5.70;;;;;;;12.44;60.65;100567.88;5010616;28;20207;-62
2023/04/16 11:07:31;;;;;;;6.23;5.63;;;;;;;12.61;60.29;100564.28;5000556;28;20212;-62
2023/04/16 11:10:01;;;;;;;6.07;5.57;;;;;;;12.73;60.03;100559.81;5005950;28;20659;-61
2023/04/16 11:12:34;;;;;;;7.63;5.30;;;;;;;12.85;59.76;100569.16;5010873;28;20293;-62
2023/04/16 11:15:05;;;;;;;7.47;5.90;;;;;;;12.90;59.83;100559.59;5011913;28;20199;-58
2023/04/16 11:17:37;;;;;;;6.47;5.87;;;;;;;12.97;59.49;100575.91;5012854;28;20203;-59
2023/04/16 11:20:06;;;;;;;6.43;5.63;;;;;;;12.86;59.36;100568.28;5010987;28;20222;-58
2023/04/16 11:22:47;;;;;;;6.90;6.17;;;;;;;12.71;58.97;100573.66;5009206;28;20706;-59
2023/04/16 11:25:19;;;;;;;6.77;6.17;;;;;;;12.61;59.85;100575.47;5011162;28;20213;-62
2023/04/16 11:27:47;;;;;;;7.07;6.47;;;;;;;12.51;60.22;100579.88;5010543;28;20732;-59
2023/04/16 11:30:17;;;;;;;6.83;6.13;;;;;;;12.37;60.29;100573.16;5012195;28;20239;-59
2023/04/16 11:32:45;;;;;;;7.17;6.47;;;;;;;12.30;60.44;100580.13;5012610;28;20234;-59
2023/04/16 11:35:15;;;;;;;6.37;5.87;;;;;;;12.26;60.86;100583.59;5012850;28;20677;-59
2023/04/16 11:37:43;;;;;;;6.53;5.93;;;;;;;12.25;60.73;100579.31;5012166;28;20292;-57
2023/04/16 11:40:12;;;;;;;6.20;5.60;;;;;;;12.33;60.69;100577.47;5010677;28;20266;-61